DAJAN LXGB-EDDE
Flight info
| Callsign | DAJAN |
|---|---|
| Flight time | N/A |
| Altitude | 41000 |
| Route | PIMOS M985 MGA N869 BLN L27 YAKXU N871 TOPTU DCT NARAK DCT TIS DCT LUSAR DCT MOPAN DCT LOHRE N746 ROBEL ROBEL1R |
| Aircraft | CL60/M-SBDE1E2E3FGHIJ1J4J5J7M3RWXYZ/LB1V1D1 |
Departure
| Time | 2026-04-30 14:18 |
|---|---|
| Airport | Gibraltar Airport (LXGB) |
Arrival
| Time | N/A |
|---|---|
| Airport | Erfurt-Weimar Airport (EDDE) |
| Time | Latitude | Longitude | Altitude | Speed | Heading |
|---|---|---|---|---|---|
| 2026-04-30 13:56 | 36.15303 | -5.34713 | 16 ft | 0 kts | 356° |
| 2026-04-30 14:15 | 36.15304 | -5.34713 | 16 ft | 1 kts | 346° |
| 2026-04-30 14:15 | 36.15299 | -5.34715 | 16 ft | 5 kts | 153° |
| 2026-04-30 14:16 | 36.15247 | -5.34706 | 16 ft | 8 kts | 158° |
| 2026-04-30 14:16 | 36.15230 | -5.34630 | 16 ft | 11 kts | 88° |
| 2026-04-30 14:16 | 36.15234 | -5.34511 | 16 ft | 15 kts | 86° |
| 2026-04-30 14:16 | 36.15239 | -5.34372 | 17 ft | 17 kts | 87° |
| 2026-04-30 14:17 | 36.15223 | -5.34234 | 18 ft | 15 kts | 159° |
| 2026-04-30 14:17 | 36.15153 | -5.34156 | 19 ft | 17 kts | 82° |
| 2026-04-30 14:17 | 36.15178 | -5.34025 | 20 ft | 13 kts | 116° |
| 2026-04-30 14:17 | 36.15150 | -5.34075 | 20 ft | 12 kts | 274° |
| 2026-04-30 14:18 | 36.15147 | -5.34229 | 19 ft | 37 kts | 267° |
| 2026-04-30 14:18 | 36.15121 | -5.34976 | 14 ft | 135 kts | 268° |
| 2026-04-30 14:18 | 36.14930 | -5.37877 | 1579 ft | 183 kts | 244° |
| 2026-04-30 14:19 | 36.12338 | -5.38067 | 2841 ft | 251 kts | 143° |
| 2026-04-30 14:19 | 36.10959 | -5.36647 | 3857 ft | 272 kts | 135° |
| 2026-04-30 14:19 | 36.09982 | -5.34621 | 4648 ft | 281 kts | 96° |
| 2026-04-30 14:20 | 36.10039 | -5.32374 | 6246 ft | 262 kts | 90° |
| 2026-04-30 14:20 | 36.10003 | -5.30101 | 7246 ft | 279 kts | 91° |
| 2026-04-30 14:20 | 36.10161 | -5.25226 | 9681 ft | 294 kts | 83° |
| 2026-04-30 14:21 | 36.10503 | -5.22746 | 10754 ft | 305 kts | 83° |
| 2026-04-30 14:21 | 36.10865 | -5.20062 | 11496 ft | 328 kts | 83° |
| 2026-04-30 14:21 | 36.11631 | -5.14367 | 13474 ft | 348 kts | 84° |
| 2026-04-30 14:22 | 36.12028 | -5.11404 | 14515 ft | 354 kts | 84° |
| 2026-04-30 14:22 | 36.12838 | -5.05320 | 16481 ft | 366 kts | 83° |
| 2026-04-30 14:22 | 36.13249 | -5.02227 | 17374 ft | 371 kts | 83° |
| 2026-04-30 14:23 | 36.14090 | -4.95867 | 19081 ft | 382 kts | 83° |
| 2026-04-30 14:23 | 36.15888 | -4.89680 | 20641 ft | 397 kts | 56° |
| 2026-04-30 14:24 | 36.20145 | -4.85302 | 22034 ft | 410 kts | 32° |
| 2026-04-30 14:24 | 36.22580 | -4.83395 | 22761 ft | 415 kts | 32° |
| 2026-04-30 14:25 | 36.27499 | -4.79527 | 24116 ft | 425 kts | 32° |
| 2026-04-30 14:25 | 36.32577 | -4.75531 | 25408 ft | 436 kts | 32° |
| 2026-04-30 14:26 | 36.37808 | -4.71411 | 26574 ft | 446 kts | 32° |
| 2026-04-30 14:26 | 36.40468 | -4.69314 | 27141 ft | 451 kts | 32° |
| 2026-04-30 14:26 | 36.45826 | -4.65086 | 28203 ft | 459 kts | 32° |
| 2026-04-30 14:27 | 36.48550 | -4.62935 | 28697 ft | 463 kts | 32° |
| 2026-04-30 14:27 | 36.51293 | -4.60767 | 29168 ft | 467 kts | 32° |
| 2026-04-30 14:27 | 36.54034 | -4.58600 | 29605 ft | 472 kts | 32° |
| 2026-04-30 14:28 | 36.59647 | -4.54156 | 30493 ft | 478 kts | 31° |
| 2026-04-30 14:28 | 36.62456 | -4.51928 | 30971 ft | 480 kts | 32° |
| 2026-04-30 14:28 | 36.65282 | -4.49686 | 31359 ft | 484 kts | 32° |
| 2026-04-30 14:28 | 36.68114 | -4.47437 | 31842 ft | 485 kts | 32° |
| 2026-04-30 14:29 | 36.73783 | -4.42929 | 32963 ft | 481 kts | 32° |
| 2026-04-30 14:29 | 36.78476 | -4.39192 | 33939 ft | 476 kts | 32° |
| 2026-04-30 14:30 | 36.88280 | -4.33066 | 35213 ft | 473 kts | 23° |
| 2026-04-30 14:31 | 36.94271 | -4.29798 | 35866 ft | 471 kts | 23° |
| 2026-04-30 14:31 | 37.00286 | -4.26507 | 36596 ft | 469 kts | 23° |
| 2026-04-30 14:31 | 37.03284 | -4.24864 | 36992 ft | 468 kts | 23° |
| 2026-04-30 14:32 | 37.09216 | -4.21609 | 37724 ft | 466 kts | 23° |
| 2026-04-30 14:32 | 37.12229 | -4.19952 | 38077 ft | 465 kts | 23° |
| 2026-04-30 14:32 | 37.15223 | -4.18305 | 38340 ft | 465 kts | 23° |
| 2026-04-30 14:33 | 37.18200 | -4.16665 | 38569 ft | 465 kts | 23° |
| 2026-04-30 14:33 | 37.24115 | -4.13401 | 39056 ft | 465 kts | 23° |
| 2026-04-30 14:33 | 37.27071 | -4.11768 | 39298 ft | 464 kts | 23° |
| 2026-04-30 14:34 | 37.30012 | -4.10142 | 39518 ft | 463 kts | 23° |
| 2026-04-30 14:34 | 37.32933 | -4.08525 | 39669 ft | 464 kts | 23° |
| 2026-04-30 14:34 | 37.35914 | -4.06873 | 39853 ft | 463 kts | 23° |
| 2026-04-30 14:34 | 37.38864 | -4.05237 | 40006 ft | 463 kts | 23° |
| 2026-04-30 14:35 | 37.43748 | -4.02525 | 40268 ft | 463 kts | 23° |
| 2026-04-30 14:35 | 37.47649 | -4.00356 | 40488 ft | 462 kts | 23° |
| 2026-04-30 14:35 | 37.50609 | -3.98709 | 40641 ft | 461 kts | 23° |
| 2026-04-30 14:36 | 37.53537 | -3.97078 | 40738 ft | 462 kts | 23° |
| 2026-04-30 14:36 | 37.56490 | -3.95431 | 40873 ft | 462 kts | 23° |
| 2026-04-30 14:36 | 37.59421 | -3.93795 | 40971 ft | 462 kts | 23° |
| 2026-04-30 14:37 | 37.65279 | -3.90522 | 41069 ft | 465 kts | 22° |
| 2026-04-30 14:37 | 37.71259 | -3.87174 | 41060 ft | 471 kts | 23° |
| 2026-04-30 14:38 | 37.77255 | -3.83811 | 41058 ft | 476 kts | 23° |
| 2026-04-30 14:38 | 37.83350 | -3.80385 | 41050 ft | 480 kts | 23° |
| 2026-04-30 14:39 | 37.89453 | -3.76950 | 41045 ft | 483 kts | 23° |
| 2026-04-30 14:39 | 37.95609 | -3.73477 | 41045 ft | 486 kts | 23° |
| 2026-04-30 14:40 | 38.04903 | -3.68223 | 41045 ft | 490 kts | 23° |
| 2026-04-30 14:40 | 38.11173 | -3.64670 | 41054 ft | 494 kts | 23° |
| 2026-04-30 14:41 | 38.17551 | -3.61227 | 41058 ft | 497 kts | 19° |
| 2026-04-30 14:41 | 38.24092 | -3.58163 | 41056 ft | 502 kts | 19° |
| 2026-04-30 14:42 | 38.30696 | -3.55057 | 41061 ft | 505 kts | 19° |
| 2026-04-30 14:42 | 38.37276 | -3.51954 | 41077 ft | 505 kts | 19° |
| 2026-04-30 14:43 | 38.43843 | -3.48849 | 41081 ft | 504 kts | 19° |
| 2026-04-30 14:43 | 38.50418 | -3.45733 | 41072 ft | 504 kts | 19° |
| 2026-04-30 14:44 | 38.57027 | -3.42594 | 41069 ft | 504 kts | 19° |
| 2026-04-30 14:44 | 38.63629 | -3.39451 | 41075 ft | 504 kts | 19° |
| 2026-04-30 14:45 | 38.70201 | -3.36316 | 41080 ft | 503 kts | 19° |
| 2026-04-30 14:45 | 38.76811 | -3.33155 | 41073 ft | 503 kts | 19° |
| 2026-04-30 14:46 | 38.83376 | -3.30010 | 41069 ft | 503 kts | 19° |
| 2026-04-30 14:46 | 38.88803 | -3.27405 | 41073 ft | 502 kts | 19° |
| 2026-04-30 14:47 | 38.96436 | -3.23734 | 41077 ft | 502 kts | 19° |
| 2026-04-30 14:47 | 39.02992 | -3.20574 | 41066 ft | 502 kts | 19° |
| 2026-04-30 14:48 | 39.09544 | -3.17409 | 41069 ft | 502 kts | 19° |
| 2026-04-30 14:48 | 39.16108 | -3.14231 | 41068 ft | 502 kts | 19° |
| 2026-04-30 14:49 | 39.22676 | -3.11045 | 41065 ft | 502 kts | 19° |
| 2026-04-30 14:49 | 39.29200 | -3.07877 | 41068 ft | 502 kts | 19° |
| 2026-04-30 14:50 | 39.39032 | -3.03102 | 41071 ft | 501 kts | 19° |
| 2026-04-30 14:51 | 39.44667 | -3.00339 | 41074 ft | 501 kts | 18° |
| 2026-04-30 14:52 | 39.53824 | -2.95894 | 41076 ft | 501 kts | 19° |
| 2026-04-30 14:52 | 39.63601 | -2.91094 | 41083 ft | 501 kts | 19° |
| 2026-04-30 14:53 | 39.73419 | -2.86263 | 41085 ft | 501 kts | 19° |
| 2026-04-30 14:54 | 39.86413 | -2.79841 | 41088 ft | 500 kts | 19° |
| 2026-04-30 14:55 | 39.96198 | -2.74985 | 41100 ft | 500 kts | 18° |
| 2026-04-30 14:56 | 40.09195 | -2.68510 | 41099 ft | 500 kts | 18° |
| 2026-04-30 14:57 | 40.18988 | -2.63613 | 41099 ft | 499 kts | 18° |
| 2026-04-30 14:58 | 40.31943 | -2.57110 | 41100 ft | 499 kts | 18° |
| 2026-04-30 14:58 | 40.41504 | -2.51713 | 41103 ft | 501 kts | 24° |
| 2026-04-30 15:00 | 40.57127 | -2.41449 | 41111 ft | 501 kts | 24° |
| 2026-04-30 15:01 | 40.69581 | -2.33244 | 41123 ft | 501 kts | 24° |
| 2026-04-30 15:01 | 40.78923 | -2.27072 | 41131 ft | 501 kts | 24° |